Airfield :
LOGIN :

Register | Disclaimer

   EN    FR    IT 

 










Legend :    VFR   Marginal VFR   IFR   Intensive IFR   Very Intensive IFR
Visi :
Ceiling :
>= 8 km
>= 3000ft
5 to 8 km
1000 to 3000 ft
1500m to 5 km
500 to 1000 ft
800 to 1500m
200 to 500 ft
< 800m
< 200 ft
Symbols :   Thunderstorms  Fog  Heavy snow  Heavy precipitations  Wind > 20 kt
SIGMETs :     Misc.  Thunderstorms  Icing  Turbulence  Mountain Waves  Volcanic Ashes







- Airport Elevation : 1860 ft
- IATA code : GRX


LEGR - Granada

CURRENT METAR :
  • 201900Z 27012KT 240V300 CAVOK 25/08 Q1014

EXPIRED METARs :
  • 201830Z 28013KT 250V310 CAVOK 26/08 Q1014
  • 201800Z 27013KT CAVOK 27/08 Q1014
  • 201730Z 27015KT 250V310 CAVOK 28/08 Q1013
  • 201700Z 28013KT CAVOK 28/09 Q1013
  • 201630Z 27014KT 250V320 CAVOK 29/09 Q1013
  • 201600Z 27014KT CAVOK 29/09 Q1013

TAF TAF LEGR
Valid from the 20 at 15:00 until the 21 at 15:00 UTC


201400Z 2015/2115 27012KT CAVOK TX31/2115Z TN14/2105Z
BECMG 2100/2102 VRB03KT
BECMG 2112/2114 27012KT
No reported NOTAMs for that airfield.
2 SIGMETs reported for the Madrid FIR (LECM) :
 
Embedded thunderstorms
LECM SIGMET 5 VALID 201800/202000 LEVA
LECM MADRID FIR/UIR EMBD TS FCST WI N4153 W00714 - N4302 W00638 - N4310 W00434 - N4202 W00155 - N4058 W00339 - N4050 W00640 - N4150 W00607 - N4153 W00714 TOP FL320 STNR NC=
Severe turbulence
LECM SIGMET 4 VALID 201709/201900 LEVA
LECM MADRID FIR/UIR SEV TURB OBS AT 1709Z WI N4130 W00430 - N4040 W00430 - N4040 W00330 - N4130 W00330 - N4130 W00430 FL200/270 STNR NC=



MET'MAP, your aeronautical weather chart ! - Copyright ORBIFLY December 2007 - Disclaimer

ORBIFLY MET'MAP TEAM :

Programming & Development : Alexandra Zaïnal
Concept & Development : Baudouin d'Aumeries
Co-Development & Prog : Marc-Olivier Méhu
Technical & hardware support : Manuel Goepfert

Contact : metmap@orbifly.com




SOURCES & CREDITS :

   NOAA